Latest Coastal Weather Observations for Hogan Island

IDT60701

Issued at 8:56 pm EDT Monday 22 December 2014 (issued every 10 minutes, with the page automatically refreshed every 10 minutes)

About coastal observations | Map of coastal stations | Coastal observations for TAS | Marine services | Other Formats
Station Details ID: 200838 Name: HOGAN ISLAND Lat: -39.22 Lon: 146.98 Height: 116.0 m
Data from the previous 72 hours. | See also: Recent months at Hogan Island
Date/Time
EDT
Temp

°C
Wind Pressure Rain
since 9am
mm
Weather Cloud Vis
km
Sea
Height
m
Swell
Dir
 
Speed
knots
Gust
knots
hPa Trend Height
m
Period
s
Dir
22/08:30pm 17.2 E 19 22 1009.2 - 0.0 - - - - - - -
22/08:00pm 17.3 E 20 24 1009.6 - 0.0 - - - - - - -
22/07:30pm 17.2 E 19 24 1009.3 - 0.0 - - - - - - -
22/07:00pm 17.2 E 18 20 1009.9 - 0.0 - - - - - - -
22/06:30pm 17.2 ESE 21 24 1009.7 - 0.0 - - - - - - -
22/06:00pm 17.3 ESE 23 27 1009.5 - 0.0 - - - - - - -
22/05:30pm 17.6 ESE 23 27 1009.9 - 0.0 - - - - - - -
22/05:00pm 17.4 ESE 24 28 1010.4 - 0.0 - - - - - - -
22/04:30pm 18.5 E 20 23 1010.5 - 0.0 - - - - - - -
22/04:00pm 19.3 ESE 21 24 1011.0 - 0.0 - - - - - - -
22/03:30pm 19.3 ESE 21 24 1011.5 - 0.0 - - - - - - -
22/03:00pm 19.7 E 23 26 1011.4 - 0.0 - - - - - - -
22/02:30pm 20.0 E 23 26 1012.0 - 0.0 - - - - - - -
22/02:00pm 20.3 E 20 24 1012.6 - 0.0 - - - - - - -
22/01:30pm 20.2 E 18 21 1013.1 - 0.0 - - - - - - -
22/01:00pm 19.9 E 18 21 1013.6 - 0.0 - - - - - - -
22/12:30pm 20.3 E 17 19 1013.9 - 0.0 - - - - - - -
22/12:00pm 19.5 E 16 18 1014.0 - 0.0 - - - - - - -
22/11:30am 19.5 E 17 19 1014.2 - 0.0 - - - - - - -
22/11:00am 19.2 E 19 21 1014.1 - 0.0 - - - - - - -
22/10:30am 18.6 E 17 19 1014.3 - 0.0 - - - - - - -
22/10:00am 17.9 E 17 19 1014.3 - 0.0 - - - - - - -
22/09:30am 17.7 ESE 17 18 1014.3 - 0.0 - - - - - - -
22/09:00am 18.4 ESE 16 18 1014.1 - 0.0 - - - - - - -
22/08:30am 17.4 E 14 16 1014.2 - 0.0 - - - - - - -
22/08:00am 17.1 ESE 14 16 1014.0 - 0.0 - - - - - - -
22/07:30am 16.7 SE 16 18 1013.6 - 0.0 - - - - - - -
22/07:00am 16.4 SE 16 18 1013.4 - 0.0 - - - - - - -
22/06:30am 15.6 SE 18 21 1013.2 - 0.0 - - - - - - -
22/06:00am 15.3 SE 16 17 1013.0 - 0.0 - - - - - - -
22/05:30am 15.3 SE 16 17 1013.0 - 0.0 - - - - - - -
22/05:00am 15.3 SE 14 16 1012.9 - 0.0 - - - - - - -
22/04:30am 15.3 SE 11 13 1012.9 - 0.0 - - - - - - -
22/04:00am 15.1 SE 11 12 1012.9 - 0.0 - - - - - - -
22/03:30am 15.2 SE 11 12 1013.1 - 0.0 - - - - - - -
22/03:00am 15.3 SE 11 13 1013.1 - 0.0 - - - - - - -
22/02:30am 15.5 SE 11 13 1013.4 - 0.0 - - - - - - -
22/02:00am 15.4 SE 9 11 1013.8 - 0.0 - - - - - - -
22/01:30am 15.4 SE 9 10 1014.0 - 0.0 - - - - - - -
22/01:00am 15.6 SSE 10 11 1014.2 - 0.0 - - - - - - -
22/12:30am 15.5 SE 7 8 1014.4 - 0.0 - - - - - - -
22/12:00am 16.1 SE 4 7 1014.2 - 0.0 - - - - - - -
 
Date/Time
EDT
Temp

°C
Wind Pressure Rain
since 9am
mm
Weather Cloud Vis
km
Sea
Height
m
Swell
Dir
 
Speed
knots
Gust
knots
hPa Trend Height
m
Period
s
Dir
21/11:30pm 16.9 NNE 4 6 1014.4 - 0.0 - - - - - - -
21/11:00pm 16.7 NE 4 7 1014.4 - 0.0 - - - - - - -
21/10:30pm 16.4 ENE 5 7 1014.3 - 0.0 - - - - - - -
21/10:00pm 16.5 NNE 9 12 1014.2 - 0.0 - - - - - - -
21/09:30pm 16.5 NNE 12 14 1013.7 - 0.0 - - - - - - -
21/09:00pm 16.1 NNE 10 13 1013.4 - 0.0 - - - - - - -
21/08:30pm 16.3 NNE 9 11 1013.6 - 0.0 - - - - - - -
21/08:00pm 17.0 NNE 10 12 1013.4 - 0.0 - - - - - - -
21/07:30pm 17.0 NNE 11 13 1013.0 - 0.0 - - - - - - -
21/07:00pm 17.0 NE 12 15 1012.8 - 0.0 - - - - - - -
21/06:30pm 17.3 NE 12 15 1012.8 - 0.0 - - - - - - -
21/06:00pm 17.6 NE 12 15 1012.6 - 0.0 - - - - - - -
21/05:30pm 18.7 NE 12 16 1013.1 - 0.0 - - - - - - -
21/05:00pm 18.5 ENE 12 15 1013.3 - 0.0 - - - - - - -
21/04:30pm 19.3 ENE 12 15 1014.0 - 0.0 - - - - - - -
21/04:00pm 19.6 ENE 13 16 1014.0 - 0.0 - - - - - - -
21/03:30pm 19.7 ENE 13 15 1014.3 - 0.0 - - - - - - -
21/03:00pm 18.6 ENE 12 15 1014.6 - 0.0 - - - - - - -
21/02:30pm 19.1 ENE 13 15 1014.7 - 0.0 - - - - - - -
21/02:00pm 19.4 ENE 14 16 1015.1 - 0.0 - - - - - - -
21/01:30pm 19.6 ENE 13 14 1015.7 - 0.0 - - - - - - -
21/01:00pm 19.3 ENE 13 14 1015.6 - 0.0 - - - - - - -
21/12:30pm 19.1 ENE 12 14 1015.7 - 0.0 - - - - - - -
21/12:00pm 19.1 NE 12 15 1015.4 - 0.0 - - - - - - -
21/11:30am 18.7 NE 10 13 1015.8 - 0.0 - - - - - - -
21/11:00am 18.3 NNE 10 13 1015.8 - 0.0 - - - - - - -
21/10:30am 17.7 NNE 10 13 1015.9 - 0.0 - - - - - - -
21/10:00am 17.3 NNE 9 13 1016.1 - 0.0 - - - - - - -
21/09:30am 16.5 NNE 8 11 1016.3 - 0.0 - - - - - - -
21/09:00am 16.4 NNE 7 11 1015.8 - 0.0 - - - - - - -
21/08:30am 16.9 NE 6 8 1015.9 - 0.0 - - - - - - -
21/08:00am 15.9 W 2 5 1016.0 - 0.0 - - - - - - -
21/07:30am 15.0 WSW 4 5 1016.3 - 0.0 - - - - - - -
21/07:00am 14.4 WSW 6 7 1016.4 - 0.0 - - - - - - -
21/06:30am 13.6 W 6 7 1016.1 - 0.0 - - - - - - -
21/06:00am 13.3 WNW 4 6 1015.5 - 0.0 - - - - - - -
21/05:30am 13.6 NNW 3 4 1015.4 - 0.0 - - - - - - -
21/05:00am 13.3 WSW 4 5 1015.1 - 0.0 - - - - - - -
21/04:30am 13.2 WSW 4 5 1014.9 - 0.0 - - - - - - -
21/04:00am 13.4 W 6 8 1015.2 - 0.0 - - - - - - -
21/03:30am 13.8 WNW 9 11 1015.2 - 0.0 - - - - - - -
21/03:00am 13.9 W 13 15 1015.2 - 0.0 - - - - - - -
21/02:30am 14.0 W 13 16 1015.7 - 0.0 - - - - - - -
21/02:00am 13.9 W 15 18 1015.9 - 0.0 - - - - - - -
21/01:30am 14.0 W 17 19 1016.0 - 0.0 - - - - - - -
21/01:00am 14.1 W 15 18 1016.2 - 0.0 - - - - - - -
21/12:30am 14.2 W 15 17 1016.6 - 0.0 - - - - - - -
21/12:00am 14.0 W 14 16 1016.6 - 0.0 - - - - - - -
 
Date/Time
EDT
Temp

°C
Wind Pressure Rain
since 9am
mm
Weather Cloud Vis
km
Sea
Height
m
Swell
Dir
 
Speed
knots
Gust
knots
hPa Trend Height
m
Period
s
Dir
20/11:30pm 14.3 W 18 21 1016.7 - 0.0 - - - - - - -
20/11:00pm 14.3 W 18 20 1016.8 - 0.0 - - - - - - -
20/10:30pm 14.3 W 19 21 1017.1 - 0.0 - - - - - - -
20/10:00pm 14.6 W 19 21 1017.2 - 0.0 - - - - - - -
20/09:30pm 14.5 W 17 20 1017.0 - 0.0 - - - - - - -
20/09:00pm 14.5 W 17 21 1016.6 - 0.0 - - - - - - -
20/08:30pm 14.7 W 20 22 1016.7 - 0.0 - - - - - - -
20/08:00pm 15.2 W 22 25 1016.5 - 0.0 - - - - - - -
20/07:30pm 15.8 W 22 26 1016.3 - 0.0 - - - - - - -
20/07:00pm 15.9 W 23 26 1016.0 - 0.0 - - - - - - -
20/06:30pm 16.9 W 25 28 1015.9 - 0.0 - - - - - - -
20/06:00pm 16.8 W 25 29 1015.5 - 0.0 - - - - - - -
20/05:30pm 17.1 W 27 31 1015.7 - 0.0 - - - - - - -
20/05:00pm 16.7 W 27 31 1015.8 - 0.0 - - - - - - -
20/04:30pm 17.7 W 28 32 1016.0 - 0.0 - - - - - - -
20/04:00pm 16.6 W 29 33 1016.2 - 0.0 - - - - - - -
20/03:30pm 17.1 W 28 32 1016.4 - 0.0 - - - - - - -
20/03:00pm 17.5 W 29 33 1016.2 - 0.0 - - - - - - -
20/02:30pm 18.1 W 25 29 1016.6 - 0.0 - - - - - - -
20/02:00pm 17.2 W 27 32 1016.6 - 0.0 - - - - - - -
20/01:30pm 17.7 W 29 33 1016.5 - 0.0 - - - - - - -
20/01:00pm 16.2 W 29 33 1016.7 - 0.0 - - - - - - -
20/12:30pm 17.3 W 29 33 1016.8 - 0.0 - - - - - - -
20/12:00pm 17.8 W 28 32 1016.7 - 0.0 - - - - - - -
20/11:30am 17.5 W 28 32 1016.9 - 0.0 - - - - - - -
20/11:00am 17.0 W 27 31 1016.9 - 0.0 - - - - - - -
20/10:30am 15.3 W 23 27 1017.0 - 0.0 - - - - - - -
20/10:00am 15.3 W 22 26 1017.0 - 0.0 - - - - - - -
20/09:30am 15.6 W 24 28 1016.9 - 0.0 - - - - - - -
20/09:00am 15.2 W 21 25 1016.7 - 0.0 - - - - - - -
20/08:30am 15.2 W 22 25 1016.7 - 0.0 - - - - - - -
20/08:00am 14.8 W 21 27 1016.5 - 0.0 - - - - - - -
20/07:30am 14.9 W 21 25 1016.3 - 0.0 - - - - - - -
20/07:00am 14.6 W 22 26 1016.2 - 0.0 - - - - - - -
20/06:30am 14.3 W 21 24 1016.2 - 0.0 - - - - - - -
20/06:00am 14.0 W 19 22 1015.9 - 0.0 - - - - - - -
20/05:30am 13.6 W 20 23 1016.0 - 0.0 - - - - - - -
20/05:00am 13.5 W 23 26 1015.8 - 0.0 - - - - - - -
20/04:30am 13.4 W 23 25 1015.6 - 0.0 - - - - - - -
20/04:00am 13.5 W 23 25 1015.5 - 0.0 - - - - - - -
20/03:30am 13.4 W 21 24 1015.7 - 0.0 - - - - - - -
20/03:00am 13.4 W 21 24 1015.7 - 0.0 - - - - - - -
20/02:30am 13.5 WSW 23 26 1016.0 - 0.0 - - - - - - -
20/02:00am 13.6 WSW 21 26 1016.1 - 0.0 - - - - - - -
20/01:30am 13.6 W 22 28 1016.5 - 0.0 - - - - - - -
20/01:00am 13.5 W 23 27 1016.9 - 0.0 - - - - - - -
20/12:30am 13.4 WSW 22 25 1017.2 - 0.0 - - - - - - -
20/12:00am 13.4 W 22 24 1017.1 - 0.0 - - - - - - -
 
Date/Time
EDT
Temp

°C
Wind Pressure Rain
since 9am
mm
Weather Cloud Vis
km
Sea
Height
m
Swell
Dir
 
Speed
knots
Gust
knots
hPa Trend Height
m
Period
s
Dir
19/11:30pm 13.3 WSW 24 27 1017.6 - 0.0 - - - - - - -
19/11:00pm 13.5 WSW 23 27 1017.8 - 0.0 - - - - - - -
19/10:30pm 13.4 WSW 24 28 1018.0 - 0.0 - - - - - - -
19/10:00pm 13.3 W 23 27 1017.9 - 0.0 - - - - - - -
19/09:30pm 13.5 WSW 24 28 1017.7 - 0.0 - - - - - - -
19/09:00pm 13.7 WSW 24 27 1017.7 - 0.0 - - - - - - -

Other Formats:

Comma delimited format used in spreadsheet applications
http://www.bom.gov.au/fwo/IDT60701/IDT60701.94949.axf

JavaScript Object Notation format (JSON) in row-major order
http://www.bom.gov.au/fwo/IDT60701/IDT60701.94949.json